createdAt,value
2019-01-18T00:00:33.255Z,93.51
2019-01-18T00:01:33.379Z,93.32
2019-01-18T00:02:33.506Z,93.51
2019-01-18T00:03:33.632Z,93.51
2019-01-18T00:04:33.757Z,93.46
2019-01-18T00:05:33.883Z,93.18
2019-01-18T00:06:34.010Z,93.32
2019-01-18T00:07:34.175Z,93.51
2019-01-18T00:08:34.264Z,93.51
2019-01-18T00:09:34.396Z,93.65
2019-01-18T00:10:34.520Z,93.56
2019-01-18T00:11:34.643Z,93.61
2019-01-18T00:12:34.774Z,93.32
2019-01-18T00:13:34.900Z,93.51
2019-01-18T00:14:35.026Z,93.18
2019-01-18T00:15:35.143Z,92.94
2019-01-18T00:16:35.272Z,93.13
2019-01-18T00:17:35.404Z,93.04
2019-01-18T00:18:35.528Z,93.32
2019-01-18T00:19:35.658Z,92.94
2019-01-18T00:20:35.793Z,93.32
2019-01-18T00:21:35.918Z,92.99
2019-01-18T00:22:36.035Z,92.99
2019-01-18T00:23:36.158Z,92.94
2019-01-18T00:24:36.289Z,92.85
2019-01-18T00:25:36.411Z,92.85
2019-01-18T00:26:36.535Z,93.04
2019-01-18T00:27:36.654Z,93.04
2019-01-18T00:28:36.784Z,92.85
2019-01-18T00:29:36.910Z,93.32
2019-01-18T00:30:37.032Z,93.13
2019-01-18T00:31:37.156Z,92.85
2019-01-18T00:32:37.285Z,92.94
2019-01-18T00:33:37.411Z,93.04
2019-01-18T00:34:37.538Z,92.85
2019-01-18T00:35:37.661Z,93.32
2019-01-18T00:36:37.785Z,92.85
2019-01-18T00:37:37.922Z,93.32
2019-01-18T00:38:38.042Z,93.32
2019-01-18T00:39:38.168Z,93.04
2019-01-18T00:40:38.296Z,92.85
2019-01-18T00:41:38.424Z,93.61
2019-01-18T00:42:38.549Z,93.61
2019-01-18T00:43:38.671Z,93.99
2019-01-18T00:44:38.799Z,93.99
2019-01-18T00:45:38.927Z,93.80
2019-01-18T00:46:39.052Z,93.61
2019-01-18T00:47:39.182Z,93.80
2019-01-18T00:48:39.309Z,94.08
2019-01-18T00:49:39.449Z,93.51
2019-01-18T00:50:39.561Z,93.89
2019-01-18T00:51:39.688Z,93.61
2019-01-18T00:52:39.811Z,93.70
2019-01-18T00:53:39.939Z,93.42
2019-01-18T00:54:40.067Z,93.04
2019-01-18T00:55:40.198Z,93.32
2019-01-18T00:56:40.322Z,93.42
2019-01-18T00:57:40.441Z,93.13
2019-01-18T00:58:40.567Z,93.32
2019-01-18T00:59:40.691Z,92.76
2019-01-18T01:00:40.825Z,92.38
2019-01-18T01:01:40.952Z,93.32
2019-01-18T01:02:41.073Z,92.76
2019-01-18T01:03:41.196Z,93.23
2019-01-18T01:04:41.332Z,92.85
2019-01-18T01:05:41.455Z,92.94
2019-01-18T01:06:41.584Z,93.04
2019-01-18T01:07:41.707Z,93.42
2019-01-18T01:08:41.844Z,92.19
2019-01-18T01:09:41.984Z,92.66
2019-01-18T01:10:42.112Z,92.28
2019-01-18T01:11:42.246Z,92.09
2019-01-18T01:12:42.372Z,92.00
2019-01-18T01:13:42.509Z,91.71
2019-01-18T01:14:42.628Z,91.90
2019-01-18T01:15:42.757Z,92.09
2019-01-18T01:16:42.910Z,91.71
2019-01-18T01:17:43.025Z,92.00
2019-01-18T01:18:43.159Z,91.62
2019-01-18T01:19:43.288Z,91.52
2019-01-18T01:20:43.427Z,91.71
2019-01-18T01:21:43.551Z,91.52
2019-01-18T01:22:43.677Z,91.33
2019-01-18T01:23:43.807Z,91.24
2019-01-18T01:24:43.946Z,90.67
2019-01-18T01:25:44.069Z,90.58
2019-01-18T01:26:44.196Z,90.39
2019-01-18T01:27:44.322Z,89.63
2019-01-18T01:28:44.453Z,90.67
2019-01-18T01:29:44.590Z,90.48
2019-01-18T01:30:44.720Z,90.58
2019-01-18T01:31:44.911Z,90.01
2019-01-18T01:32:45.046Z,90.29
2019-01-18T01:33:45.172Z,90.29
2019-01-18T01:34:45.328Z,90.10
2019-01-18T01:35:45.440Z,90.10
2019-01-18T01:36:45.568Z,89.82
2019-01-18T01:37:45.690Z,90.01
2019-01-18T01:38:45.820Z,90.10
2019-01-18T01:39:45.960Z,90.01
2019-01-18T01:40:46.122Z,89.91
2019-01-18T01:41:46.214Z,89.44
2019-01-18T01:42:46.347Z,90.10
2019-01-18T01:43:46.500Z,89.15
2019-01-18T01:44:46.604Z,90.01
2019-01-18T01:45:46.729Z,89.44
2019-01-18T01:46:46.868Z,89.72
2019-01-18T01:47:47.000Z,89.34
2019-01-18T01:48:47.130Z,89.82
2019-01-18T01:49:47.254Z,89.15
2019-01-18T01:50:47.378Z,89.44
2019-01-18T01:51:47.538Z,89.34
2019-01-18T01:52:47.657Z,89.53
2019-01-18T01:53:47.781Z,89.44
2019-01-18T01:54:47.911Z,89.44
2019-01-18T01:55:48.037Z,89.34
2019-01-18T01:56:48.171Z,89.34
2019-01-18T01:57:48.323Z,89.44
2019-01-18T01:58:48.445Z,89.44
2019-01-18T01:59:49.946Z,89.15
2019-01-18T02:00:48.696Z,89.06
2019-01-18T02:01:48.852Z,89.34
2019-01-18T02:02:48.968Z,89.44
2019-01-18T02:03:49.101Z,89.34
2019-01-18T02:04:49.227Z,89.53
2019-01-18T02:05:49.400Z,89.06
2019-01-18T02:06:49.505Z,89.15
2019-01-18T02:07:49.628Z,89.34
2019-01-18T02:08:49.766Z,90.10
2019-01-18T02:09:49.920Z,90.29
2019-01-18T02:10:50.033Z,90.01
2019-01-18T02:11:50.162Z,90.01
2019-01-18T02:12:50.763Z,90.67
2019-01-18T02:13:50.463Z,90.10
2019-01-18T02:14:50.597Z,89.91
2019-01-18T02:15:50.723Z,90.10
2019-01-18T02:16:50.845Z,90.10
2019-01-18T02:17:50.970Z,90.01
2019-01-18T02:18:51.108Z,90.10
2019-01-18T02:19:51.232Z,90.20
2019-01-18T02:20:51.365Z,90.10
2019-01-18T02:21:51.489Z,89.72
2019-01-18T02:22:51.628Z,89.91
2019-01-18T02:23:51.756Z,89.82
2019-01-18T02:24:51.880Z,89.82
2019-01-18T02:25:52.000Z,90.20
2019-01-18T02:26:52.139Z,89.91
2019-01-18T02:27:52.261Z,89.82
2019-01-18T02:28:52.388Z,90.10
2019-01-18T02:29:56.622Z,89.82
2019-01-18T02:30:52.665Z,89.44
2019-01-18T02:31:52.799Z,90.29
2019-01-18T02:32:52.923Z,90.10
2019-01-18T02:33:53.058Z,90.20
2019-01-18T02:34:53.196Z,89.91
2019-01-18T02:35:53.320Z,89.34
2019-01-18T02:36:53.443Z,89.72
2019-01-18T02:37:53.569Z,89.25
2019-01-18T02:38:53.707Z,88.30
2019-01-18T02:39:53.833Z,88.68
2019-01-18T02:40:53.965Z,88.68
2019-01-18T02:41:54.091Z,88.49
2019-01-18T02:42:54.241Z,88.68
2019-01-18T02:43:54.358Z,88.30
2019-01-18T02:44:54.481Z,88.11
2019-01-18T02:45:54.631Z,88.78
2019-01-18T02:46:54.752Z,88.78
2019-01-18T02:47:54.882Z,88.73
2019-01-18T02:48:55.013Z,88.30
2019-01-18T02:49:55.142Z,87.92
2019-01-18T02:50:55.263Z,88.16
2019-01-18T02:51:56.263Z,88.44
2019-01-18T02:52:55.534Z,88.54
2019-01-18T02:53:55.664Z,87.97
2019-01-18T02:54:55.797Z,88.16
2019-01-18T02:55:55.925Z,88.44
2019-01-18T02:56:56.087Z,88.54
2019-01-18T02:57:56.205Z,89.01
2019-01-18T02:58:56.333Z,88.92
2019-01-18T02:59:56.463Z,88.92
2019-01-18T03:00:56.594Z,88.82
2019-01-18T03:01:56.726Z,88.82
2019-01-18T03:02:56.841Z,88.35
2019-01-18T03:03:56.971Z,88.30
2019-01-18T03:04:57.144Z,88.87
2019-01-18T03:05:57.269Z,89.25
2019-01-18T03:06:57.392Z,89.06
2019-01-18T03:07:57.525Z,89.63
2019-01-18T03:08:57.645Z,89.58
2019-01-18T03:09:57.776Z,89.11
2019-01-18T03:10:57.909Z,89.01
2019-01-18T03:11:58.070Z,89.01
2019-01-18T03:12:58.194Z,89.39
2019-01-18T03:13:58.321Z,89.29
2019-01-18T03:14:58.447Z,89.67
2019-01-18T03:15:58.604Z,88.63
2019-01-18T03:16:58.731Z,88.63
2019-01-18T03:17:58.977Z,88.82
2019-01-18T03:18:58.975Z,88.73
2019-01-18T03:19:59.099Z,88.35
2019-01-18T03:20:59.223Z,88.63
2019-01-18T03:21:59.352Z,87.87
2019-01-18T03:22:59.502Z,87.59
2019-01-18T03:23:59.639Z,87.87
2019-01-18T03:24:59.771Z,87.68
2019-01-18T03:25:59.932Z,87.59
2019-01-18T03:27:00.061Z,87.30
2019-01-18T03:28:00.189Z,87.21
2019-01-18T03:29:00.348Z,87.30
2019-01-18T03:30:00.478Z,86.83
2019-01-18T03:31:00.607Z,86.93
2019-01-18T03:32:00.729Z,86.55
2019-01-18T03:33:00.888Z,86.16
2019-01-18T03:34:00.996Z,86.16
2019-01-18T03:35:01.122Z,86.45
2019-01-18T03:36:01.266Z,86.07
2019-01-18T03:37:01.394Z,85.88
2019-01-18T03:38:01.527Z,85.69
2019-01-18T03:39:01.651Z,85.69
2019-01-18T03:40:01.801Z,84.94
2019-01-18T03:41:01.930Z,85.03
2019-01-18T03:42:02.057Z,85.41
2019-01-18T03:43:02.180Z,85.50
2019-01-18T03:44:02.310Z,85.69
2019-01-18T03:45:02.441Z,85.50
2019-01-18T03:46:02.567Z,84.74
2019-01-18T03:47:02.704Z,85.13
2019-01-18T03:48:02.891Z,84.17
2019-01-18T03:49:02.978Z,84.36
2019-01-18T03:50:03.102Z,84.84
2019-01-18T03:51:03.231Z,84.84
2019-01-18T03:52:03.391Z,84.46
2019-01-18T03:53:03.510Z,84.65
2019-01-18T03:54:03.638Z,84.84
2019-01-18T03:55:03.769Z,84.17
2019-01-18T03:56:03.897Z,83.23
2019-01-18T03:57:04.020Z,83.51
2019-01-18T03:58:04.151Z,82.75
2019-01-18T03:59:04.293Z,83.51
2019-01-18T04:00:04.413Z,83.61
2019-01-18T04:01:04.540Z,83.51
2019-01-18T04:02:04.668Z,83.51
2019-01-18T04:03:04.812Z,83.42
2019-01-18T04:04:04.938Z,83.32
2019-01-18T04:05:05.062Z,83.42
2019-01-18T04:06:05.200Z,83.04
2019-01-18T04:07:05.347Z,82.94
2019-01-18T04:08:05.475Z,83.23
2019-01-18T04:09:05.600Z,82.75
2019-01-18T04:10:05.732Z,82.85
2019-01-18T04:11:05.863Z,83.04
2019-01-18T04:12:05.986Z,82.85
2019-01-18T04:13:06.117Z,83.04
2019-01-18T04:14:06.266Z,82.94
2019-01-18T04:15:06.391Z,83.04
2019-01-18T04:16:06.516Z,82.66
2019-01-18T04:17:06.655Z,82.47
2019-01-18T04:18:06.788Z,82.09
2019-01-18T04:19:06.913Z,82.75
2019-01-18T04:20:07.037Z,82.85
2019-01-18T04:21:07.776Z,82.66
2019-01-18T04:22:07.305Z,82.66
2019-01-18T04:23:07.434Z,82.28
2019-01-18T04:24:07.560Z,82.94
2019-01-18T04:25:07.673Z,82.75
2019-01-18T04:27:39.809Z,82.85
2019-01-18T04:28:39.938Z,83.32
2019-01-18T04:29:40.075Z,83.61
2019-01-18T04:30:40.213Z,84.08
2019-01-18T04:31:40.333Z,83.80
2019-01-18T04:32:40.463Z,84.27
2019-01-18T04:33:40.606Z,84.65
2019-01-18T04:34:40.732Z,84.84
2019-01-18T04:35:40.860Z,85.03
2019-01-18T04:36:40.992Z,85.13
2019-01-18T04:37:41.127Z,84.55
2019-01-18T04:38:41.248Z,84.84
2019-01-18T04:39:41.370Z,84.84
2019-01-18T04:40:41.566Z,85.13
2019-01-18T04:41:41.583Z,84.74
2019-01-18T04:42:41.708Z,84.65
2019-01-18T04:43:41.836Z,83.98
2019-01-18T04:44:41.969Z,83.42
2019-01-18T04:45:42.123Z,83.51
2019-01-18T04:46:42.246Z,84.17
2019-01-18T04:47:42.385Z,84.27
2019-01-18T04:48:42.508Z,84.84
2019-01-18T04:49:42.647Z,84.84
2019-01-18T04:50:42.771Z,84.84
2019-01-18T04:51:42.899Z,84.84
2019-01-18T04:52:43.035Z,84.94
2019-01-18T04:53:43.195Z,84.55
2019-01-18T04:54:43.302Z,84.74
2019-01-18T04:55:43.426Z,85.13
2019-01-18T04:56:43.553Z,84.08
2019-01-18T04:57:43.724Z,84.08
2019-01-18T04:58:43.838Z,84.23
2019-01-18T04:59:43.962Z,84.70
2019-01-18T05:00:44.095Z,84.70
2019-01-18T05:01:44.247Z,84.89
2019-01-18T05:02:44.370Z,84.80
2019-01-18T05:03:44.494Z,84.89
2019-01-18T05:04:44.626Z,84.61
2019-01-18T05:05:44.788Z,84.61
2019-01-18T05:06:44.900Z,84.32
2019-01-18T05:07:45.036Z,84.23
2019-01-18T05:08:45.180Z,84.32
2019-01-18T05:09:45.299Z,84.04
2019-01-18T05:10:45.434Z,83.56
2019-01-18T05:11:45.549Z,83.75
2019-01-18T05:12:45.674Z,83.75
2019-01-18T05:13:45.801Z,83.56
2019-01-18T05:14:45.928Z,83.75
2019-01-18T05:15:46.052Z,83.85
2019-01-18T05:16:46.176Z,83.37
2019-01-18T05:17:46.302Z,82.62
2019-01-18T05:18:46.434Z,83.51
2019-01-18T05:19:46.581Z,82.94
2019-01-18T05:20:46.699Z,83.09
2019-01-18T05:21:46.846Z,82.90
2019-01-18T05:22:46.974Z,83.56
2019-01-18T05:23:47.129Z,83.00
2019-01-18T05:24:49.469Z,82.62
2019-01-18T05:25:47.379Z,83.04
2019-01-18T05:26:47.503Z,83.32
2019-01-18T05:27:47.654Z,82.09
2019-01-18T05:28:47.781Z,81.95
2019-01-18T05:29:47.902Z,81.67
2019-01-18T05:30:48.048Z,81.67
2019-01-18T05:31:48.173Z,81.33
2019-01-18T05:32:48.295Z,81.52
2019-01-18T05:33:48.429Z,81.10
2019-01-18T05:34:48.594Z,81.86
2019-01-18T05:35:48.703Z,81.86
2019-01-18T05:36:48.825Z,81.43
2019-01-18T05:37:48.964Z,81.57
2019-01-18T05:38:49.112Z,82.05
2019-01-18T05:39:49.235Z,81.10
2019-01-18T05:40:49.392Z,81.57
2019-01-18T05:41:49.536Z,81.10
2019-01-18T05:42:49.663Z,80.25
2019-01-18T05:43:49.790Z,80.44
2019-01-18T05:44:49.934Z,80.63
2019-01-18T05:45:50.058Z,80.72
2019-01-18T05:46:50.186Z,80.25
2019-01-18T05:47:50.328Z,80.63
2019-01-18T05:48:50.457Z,80.91
2019-01-18T05:49:50.579Z,80.25
2019-01-18T05:50:50.711Z,79.77
2019-01-18T05:51:50.863Z,80.44
2019-01-18T05:52:50.993Z,80.34
2019-01-18T05:53:51.112Z,80.34
2019-01-18T05:54:51.261Z,80.15
2019-01-18T05:55:51.385Z,80.44
2019-01-18T05:56:51.514Z,80.25
2019-01-18T05:57:51.657Z,80.53
2019-01-18T05:58:51.773Z,79.77
2019-01-18T05:59:51.907Z,79.58
2019-01-18T06:00:55.371Z,80.25
2019-01-18T06:01:52.172Z,79.49
2019-01-18T06:02:52.303Z,79.49
2019-01-18T06:03:52.418Z,78.35
2019-01-18T06:04:52.564Z,78.35
2019-01-18T06:05:52.685Z,78.73
2019-01-18T06:06:52.813Z,78.35
2019-01-18T06:07:52.949Z,77.97
2019-01-18T06:08:53.109Z,77.78
2019-01-18T06:09:53.224Z,77.97
2019-01-18T06:10:53.352Z,77.69
2019-01-18T06:11:53.499Z,78.16
2019-01-18T06:12:53.625Z,77.78
2019-01-18T06:13:53.760Z,78.16
2019-01-18T06:14:53.881Z,78.35
2019-01-18T06:15:54.022Z,77.97
2019-01-18T06:16:54.139Z,78.07
2019-01-18T06:17:54.267Z,77.88
2019-01-18T06:18:54.406Z,78.35
2019-01-18T06:19:54.528Z,78.16
2019-01-18T06:20:54.658Z,77.40
2019-01-18T06:21:54.806Z,77.40
2019-01-18T06:22:54.929Z,76.93
2019-01-18T06:23:55.070Z,76.84
2019-01-18T06:24:55.195Z,77.03
2019-01-18T06:25:55.345Z,76.84
2019-01-18T06:26:55.992Z,77.40
2019-01-18T06:27:55.574Z,76.93
2019-01-18T06:28:55.711Z,76.74
2019-01-18T06:29:55.831Z,76.55
2019-01-18T06:31:01.570Z,75.70
2019-01-18T06:31:56.088Z,76.65
2019-01-18T06:32:56.222Z,77.03
2019-01-18T06:33:56.350Z,76.55
2019-01-18T06:34:56.489Z,76.93
2019-01-18T06:35:56.615Z,77.31
2019-01-18T06:36:56.756Z,77.50
2019-01-18T06:37:56.881Z,77.59
2019-01-18T06:38:57.008Z,77.78
2019-01-18T06:39:57.149Z,77.78
2019-01-18T06:40:57.278Z,77.69
2019-01-18T06:41:57.405Z,77.78
2019-01-18T06:42:57.547Z,77.59
2019-01-18T06:43:57.679Z,77.50
2019-01-18T06:44:57.800Z,78.16
2019-01-18T06:45:57.928Z,78.16
2019-01-18T06:46:58.080Z,78.16
2019-01-18T06:47:58.207Z,78.16
2019-01-18T06:48:58.336Z,77.97
2019-01-18T06:49:58.460Z,78.45
2019-01-18T06:50:58.607Z,78.16
2019-01-18T06:51:58.731Z,78.26
2019-01-18T06:52:58.865Z,78.26
2019-01-18T06:53:59.037Z,77.88
2019-01-18T06:54:59.166Z,77.78
2019-01-18T06:55:59.287Z,77.78
2019-01-18T06:56:59.414Z,77.78
2019-01-18T06:57:59.553Z,77.69
2019-01-18T06:58:59.676Z,78.16
2019-01-18T06:59:59.791Z,77.97
2019-01-18T07:00:59.923Z,78.07
2019-01-18T07:02:00.077Z,77.97
2019-01-18T07:03:00.196Z,77.88
2019-01-18T07:04:00.321Z,77.88
2019-01-18T07:05:00.454Z,77.97
2019-01-18T07:06:00.580Z,77.97
2019-01-18T07:07:00.706Z,78.26
2019-01-18T07:08:00.850Z,78.07
2019-01-18T07:09:00.973Z,78.73
2019-01-18T07:10:01.099Z,79.02
2019-01-18T07:11:01.262Z,78.83
2019-01-18T07:12:01.377Z,79.11
2019-01-18T07:13:01.503Z,79.30
2019-01-18T07:14:01.630Z,79.11
2019-01-18T07:15:01.792Z,78.83
2019-01-18T07:16:01.901Z,78.54
2019-01-18T07:17:02.030Z,78.16
2019-01-18T07:18:02.158Z,77.88
2019-01-18T07:19:02.293Z,77.88
2019-01-18T07:20:02.414Z,78.26
2019-01-18T07:21:02.541Z,78.07
2019-01-18T07:22:02.672Z,78.54
2019-01-18T07:23:02.818Z,77.78
2019-01-18T07:24:02.951Z,77.97
2019-01-18T07:25:03.097Z,78.26
2019-01-18T07:26:03.221Z,78.64
2019-01-18T07:27:03.353Z,78.83
2019-01-18T07:28:03.481Z,78.83
2019-01-18T07:29:03.622Z,78.64
2019-01-18T07:30:03.849Z,78.64
2019-01-18T07:31:03.861Z,78.79
2019-01-18T07:32:04.820Z,78.98
2019-01-18T07:33:04.101Z,78.41
2019-01-18T07:34:04.213Z,79.36
2019-01-18T07:35:04.348Z,79.55
2019-01-18T07:36:04.480Z,80.96
2019-01-18T07:37:04.602Z,80.96
2019-01-18T07:38:04.738Z,81.25
2019-01-18T07:39:04.860Z,81.34
2019-01-18T07:40:04.988Z,81.44
2019-01-18T07:41:06.030Z,80.96
2019-01-18T07:42:05.265Z,80.96
2019-01-18T07:43:05.395Z,80.96
2019-01-18T07:44:06.526Z,80.96
2019-01-18T07:45:05.599Z,81.06
2019-01-18T07:46:05.733Z,80.87
2019-01-18T07:47:05.862Z,81.25
2019-01-18T07:48:05.989Z,80.58
2019-01-18T07:49:06.115Z,80.58
2019-01-18T07:50:06.240Z,80.49
2019-01-18T07:51:06.362Z,80.40
2019-01-18T07:52:06.495Z,80.68
2019-01-18T07:53:06.623Z,80.68
2019-01-18T07:54:06.771Z,80.77
2019-01-18T07:55:06.900Z,80.77
2019-01-18T07:56:07.026Z,81.06
2019-01-18T07:57:07.154Z,80.58
2019-01-18T07:58:07.307Z,80.77
2019-01-18T07:59:07.443Z,80.40
2019-01-18T08:00:07.570Z,80.49
2019-01-18T08:01:07.768Z,80.49
2019-01-18T08:02:07.768Z,80.87
2019-01-18T08:03:07.899Z,80.58
2019-01-18T08:04:08.017Z,80.68
2019-01-18T08:05:08.155Z,80.49
2019-01-18T08:06:08.278Z,80.58
2019-01-18T08:07:08.403Z,80.77
2019-01-18T08:08:08.535Z,80.58
2019-01-18T08:09:08.660Z,80.68
2019-01-18T08:10:08.787Z,80.87
2019-01-18T08:11:08.920Z,81.87
2019-01-18T08:12:09.047Z,83.33
2019-01-18T08:13:09.169Z,83.29
2019-01-18T08:14:09.297Z,83.39
2019-01-18T08:15:10.027Z,83.67
2019-01-18T08:16:09.540Z,83.10
2019-01-18T08:17:09.670Z,82.82
2019-01-18T08:18:09.791Z,83.76
2019-01-18T08:19:09.919Z,82.86
2019-01-18T08:20:10.052Z,83.43
2019-01-18T08:21:10.178Z,83.43
2019-01-18T08:22:10.299Z,83.62
2019-01-18T08:23:10.429Z,82.95
2019-01-18T08:24:10.557Z,82.95
2019-01-18T08:25:10.681Z,83.24
2019-01-18T08:26:10.804Z,82.76
2019-01-18T08:27:10.931Z,82.95
2019-01-18T08:28:11.059Z,82.76
2019-01-18T08:29:11.189Z,81.82
2019-01-18T08:30:11.319Z,82.10
2019-01-18T08:31:11.450Z,82.48
2019-01-18T08:32:11.577Z,82.29
2019-01-18T08:33:11.700Z,82.48
2019-01-18T08:34:11.827Z,82.71
2019-01-18T08:35:11.957Z,81.86
2019-01-18T08:36:12.082Z,81.95
2019-01-18T08:37:12.212Z,81.38
2019-01-18T08:38:12.334Z,81.20
2019-01-18T08:39:12.463Z,81.38
2019-01-18T08:40:12.590Z,81.29
2019-01-18T08:41:12.722Z,81.38
2019-01-18T08:42:12.850Z,81.38
2019-01-18T08:43:12.978Z,81.10
2019-01-18T08:44:13.101Z,81.10
2019-01-18T08:45:13.232Z,80.82
2019-01-18T08:46:13.373Z,81.01
2019-01-18T08:47:13.498Z,81.48
2019-01-18T08:48:13.624Z,80.91
2019-01-18T08:49:13.759Z,80.72
2019-01-18T08:50:13.884Z,80.63
2019-01-18T08:51:14.012Z,80.25
2019-01-18T08:52:14.142Z,80.44
2019-01-18T08:53:14.265Z,80.44
2019-01-18T08:54:14.390Z,80.15
2019-01-18T08:55:14.519Z,80.25
2019-01-18T08:56:14.647Z,80.44
2019-01-18T08:57:14.771Z,80.82
2019-01-18T08:58:14.896Z,80.53
2019-01-18T08:59:15.024Z,81.20
2019-01-18T09:00:15.154Z,81.01
2019-01-18T09:01:15.274Z,81.06
2019-01-18T09:02:15.399Z,81.25
2019-01-18T09:03:15.531Z,81.10
2019-01-18T09:04:15.659Z,81.63
2019-01-18T09:05:15.786Z,82.05
2019-01-18T09:06:15.918Z,82.43
2019-01-18T09:07:16.042Z,82.05
2019-01-18T09:08:16.180Z,82.05
2019-01-18T09:09:16.297Z,82.43
2019-01-18T09:10:16.429Z,82.05
2019-01-18T09:11:16.555Z,81.95
2019-01-18T09:12:16.696Z,81.86
2019-01-18T09:13:16.820Z,82.14
2019-01-18T09:14:19.524Z,82.05
2019-01-18T09:15:17.078Z,81.95
2019-01-18T09:16:17.206Z,81.67
2019-01-18T09:17:17.344Z,81.67
2019-01-18T09:18:17.480Z,81.38
2019-01-18T09:19:17.598Z,81.10
2019-01-18T09:20:18.538Z,81.10
2019-01-18T09:21:17.821Z,80.44
2019-01-18T09:22:17.948Z,80.82
2019-01-18T09:23:18.075Z,80.63
2019-01-18T09:24:18.205Z,81.20
2019-01-18T09:25:18.326Z,80.91
2019-01-18T09:26:18.454Z,81.48
2019-01-18T09:27:18.584Z,81.67
2019-01-18T09:28:18.712Z,81.48
2019-01-18T09:29:18.843Z,81.48
2019-01-18T09:30:18.975Z,80.82
2019-01-18T09:31:19.102Z,81.67
2019-01-18T09:32:19.231Z,81.10
2019-01-18T09:33:19.350Z,80.44
2019-01-18T09:34:19.490Z,80.95
2019-01-18T09:35:19.616Z,80.86
2019-01-18T09:36:19.752Z,80.57
2019-01-18T09:37:20.526Z,81.33
2019-01-18T09:38:20.062Z,80.48
2019-01-18T09:39:20.191Z,79.63
2019-01-18T09:40:20.319Z,78.96
2019-01-18T09:41:20.449Z,77.64
2019-01-18T09:42:20.577Z,76.97
2019-01-18T09:43:20.704Z,76.78
2019-01-18T09:44:20.836Z,76.40
2019-01-18T09:45:20.964Z,76.78
2019-01-18T09:46:21.091Z,76.59
2019-01-18T09:47:21.223Z,76.87
2019-01-18T09:48:21.352Z,76.78
2019-01-18T09:49:21.482Z,77.06
2019-01-18T09:50:21.614Z,76.92
2019-01-18T09:51:21.750Z,76.15
2019-01-18T09:52:21.885Z,77.01
2019-01-18T09:53:22.017Z,75.78
2019-01-18T09:54:22.170Z,76.54
2019-01-18T09:55:22.301Z,75.78
2019-01-18T09:56:22.440Z,76.15
2019-01-18T09:57:22.570Z,75.31
2019-01-18T09:58:22.692Z,76.29
2019-01-18T09:59:22.823Z,75.62
2019-01-18T10:00:22.952Z,75.40
2019-01-18T10:01:23.080Z,74.45
2019-01-18T10:02:23.207Z,74.92
2019-01-18T10:03:23.339Z,76.10
2019-01-18T10:04:23.469Z,75.81
2019-01-18T10:05:23.606Z,75.62
2019-01-18T10:06:23.739Z,75.53
2019-01-18T10:07:23.864Z,75.24
2019-01-18T10:08:23.993Z,74.30
2019-01-18T10:09:24.128Z,74.35
2019-01-18T10:10:24.261Z,74.68
2019-01-18T10:11:24.403Z,75.15
2019-01-18T10:12:24.511Z,76.10
2019-01-18T10:13:24.649Z,76.29
2019-01-18T10:14:24.775Z,76.86
2019-01-18T10:15:24.901Z,76.48
2019-01-18T10:16:25.035Z,76.67
2019-01-18T10:17:25.173Z,75.81
2019-01-18T10:18:25.310Z,75.43
2019-01-18T10:19:25.432Z,75.62
2019-01-18T10:20:25.567Z,75.24
2019-01-18T10:21:25.704Z,74.68
2019-01-18T10:22:25.839Z,74.39
2019-01-18T10:23:25.970Z,73.63
2019-01-18T10:24:26.103Z,73.63
2019-01-18T10:25:26.242Z,74.01
2019-01-18T10:26:26.382Z,74.15
2019-01-18T10:27:26.511Z,73.67
2019-01-18T10:28:26.646Z,73.10
2019-01-18T10:29:28.288Z,73.19
2019-01-18T10:30:26.909Z,72.91
2019-01-18T10:31:27.033Z,71.86
2019-01-18T10:32:27.164Z,72.06
2019-01-18T10:33:27.301Z,72.06
2019-01-18T10:34:27.432Z,72.15
2019-01-18T10:35:27.562Z,72.63
2019-01-18T10:36:27.694Z,71.48
2019-01-18T10:37:27.831Z,71.11
2019-01-18T10:38:27.958Z,71.11
2019-01-18T10:39:28.082Z,71.11
2019-01-18T10:40:28.230Z,70.15
2019-01-18T10:41:28.362Z,69.68
2019-01-18T10:42:28.493Z,69.11
2019-01-18T10:43:28.625Z,69.78
2019-01-18T10:44:28.753Z,69.78
2019-01-18T10:45:28.898Z,68.83
2019-01-18T10:46:29.040Z,68.35
2019-01-18T10:47:29.174Z,68.01
2019-01-18T10:48:29.306Z,68.16
2019-01-18T10:49:29.439Z,68.10
2019-01-18T10:50:29.575Z,67.63
2019-01-18T10:51:29.701Z,66.96
2019-01-18T10:52:29.841Z,67.63
2019-01-18T10:53:29.969Z,68.29
2019-01-18T10:54:30.097Z,67.00
2019-01-18T10:55:30.235Z,66.14
2019-01-18T10:56:30.375Z,66.14
2019-01-18T10:57:30.500Z,65.76
2019-01-18T10:58:30.630Z,64.53
2019-01-18T10:59:30.764Z,64.90
2019-01-18T11:00:30.897Z,65.19
2019-01-18T11:01:31.033Z,64.90
2019-01-18T11:02:31.158Z,64.53
2019-01-18T11:03:31.292Z,65.22
2019-01-18T11:04:31.427Z,64.65
2019-01-18T11:05:31.559Z,63.99
2019-01-18T11:06:32.545Z,63.89
2019-01-18T11:07:31.822Z,64.11
2019-01-18T11:08:31.962Z,64.21
2019-01-18T11:09:32.099Z,63.45
2019-01-18T11:10:32.228Z,62.59
2019-01-18T11:11:32.362Z,62.15
2019-01-18T11:12:32.495Z,61.86
2019-01-18T11:13:32.636Z,62.05
2019-01-18T11:14:32.767Z,60.15
2019-01-18T11:15:35.943Z,59.48
2019-01-18T11:16:33.030Z,57.87
2019-01-18T11:17:33.172Z,57.01
2019-01-18T11:18:33.301Z,56.24
2019-01-18T11:19:33.441Z,55.96
2019-01-18T11:20:33.574Z,55.87
2019-01-18T11:21:33.711Z,55.20
2019-01-18T11:22:33.848Z,55.20
2019-01-18T11:23:33.981Z,55.58
2019-01-18T11:24:34.173Z,55.68
2019-01-18T11:25:34.256Z,55.87
2019-01-18T11:26:34.392Z,55.20
2019-01-18T11:27:34.529Z,55.39
2019-01-18T11:28:34.656Z,56.24
2019-01-18T11:29:34.813Z,57.20
2019-01-18T11:30:34.945Z,55.68
2019-01-18T11:31:35.083Z,54.72
2019-01-18T11:32:35.217Z,54.15
2019-01-18T11:33:35.350Z,53.39
2019-01-18T11:34:35.490Z,53.30
2019-01-18T11:35:35.625Z,53.08
2019-01-18T11:36:35.760Z,54.32
2019-01-18T11:37:35.901Z,54.50
2019-01-18T11:38:36.033Z,54.50
2019-01-18T11:39:36.171Z,55.46
2019-01-18T11:40:36.322Z,55.83
2019-01-18T11:41:36.460Z,55.83
2019-01-18T11:42:36.602Z,55.77
2019-01-18T11:43:36.735Z,54.69
2019-01-18T11:44:36.876Z,53.77
2019-01-18T11:45:37.015Z,54.50
2019-01-18T11:46:37.160Z,53.84
2019-01-18T11:47:37.295Z,54.22
2019-01-18T11:48:37.430Z,54.13
2019-01-18T11:49:37.569Z,54.22
2019-01-18T11:50:37.709Z,54.13
2019-01-18T11:51:37.846Z,53.94
2019-01-18T11:52:37.984Z,53.84
2019-01-18T11:53:38.137Z,53.84
2019-01-18T11:54:38.267Z,53.17
2019-01-18T11:55:38.407Z,52.63
2019-01-18T11:56:38.547Z,51.87
2019-01-18T11:57:38.687Z,52.34
2019-01-18T11:58:38.821Z,52.34
2019-01-18T11:59:38.959Z,52.44
2019-01-18T12:00:39.098Z,52.18
2019-01-18T12:01:39.239Z,52.56
2019-01-18T12:02:39.379Z,53.13
2019-01-18T12:03:39.520Z,52.47
2019-01-18T12:04:39.662Z,51.89
2019-01-18T12:05:39.806Z,51.42
2019-01-18T12:06:39.954Z,52.15
2019-01-18T12:07:40.095Z,52.84
2019-01-18T12:08:41.925Z,52.18
2019-01-18T12:09:40.370Z,51.42
2019-01-18T12:10:40.510Z,51.51
2019-01-18T12:11:40.654Z,51.14
2019-01-18T12:12:40.790Z,51.23
2019-01-18T12:13:40.932Z,51.23
2019-01-18T12:14:41.065Z,51.04
2019-01-18T12:15:41.201Z,51.42
2019-01-18T12:16:41.342Z,51.23
2019-01-18T12:17:41.486Z,51.35
2019-01-18T12:18:41.633Z,51.64
2019-01-18T12:19:41.772Z,50.68
2019-01-18T12:20:41.912Z,50.21
2019-01-18T12:21:42.059Z,50.21
2019-01-18T12:22:42.195Z,48.39
2019-01-18T12:23:42.335Z,47.63
2019-01-18T12:24:42.481Z,47.25
2019-01-18T12:25:42.618Z,46.68
2019-01-18T12:26:42.760Z,46.49
2019-01-18T12:27:42.911Z,46.20
2019-01-18T12:28:43.052Z,46.01
2019-01-18T12:29:43.191Z,46.20
2019-01-18T12:30:43.334Z,46.30
2019-01-18T12:31:43.476Z,46.78
2019-01-18T12:32:43.623Z,47.54
2019-01-18T12:33:43.766Z,46.49
2019-01-18T12:34:43.912Z,46.20
2019-01-18T12:35:44.059Z,45.65
2019-01-18T12:36:44.201Z,45.73
2019-01-18T12:37:44.358Z,45.25
2019-01-18T12:38:44.497Z,45.25
2019-01-18T12:39:44.641Z,45.25
2019-01-18T12:40:44.783Z,45.06
2019-01-18T12:41:44.926Z,45.15
2019-01-18T12:42:45.067Z,44.87
2019-01-18T12:43:45.207Z,44.99
2019-01-18T12:44:45.353Z,45.65
2019-01-18T12:45:45.494Z,45.47
2019-01-18T12:46:45.631Z,45.06
2019-01-18T12:47:45.777Z,44.68
2019-01-18T12:48:45.919Z,45.18
2019-01-18T12:49:46.065Z,45.15
2019-01-18T12:50:46.218Z,45.25
2019-01-18T12:51:46.359Z,45.44
2019-01-18T12:52:46.502Z,45.15
2019-01-18T12:53:46.642Z,44.51
2019-01-18T12:54:46.783Z,44.60
2019-01-18T12:55:46.934Z,44.13